Time;durP1;ratioP1;P1;durP2;ratioP2;P2;SDS_P1;SDS_P2;PMS_P1;PMS_P2;Temp;Humidity;BMP_temperature;BMP_pressure;BME280_temperature;BME280_humidity;BME280_pressure;Samples;Min_cycle;Max_cycle;Signal;HPM_P1;HPM_P2
2021/04/11 00:01:57;;;;;;;;;;;10.20;99.90;;;;;;5073425;28;19934;-65
2021/04/11 00:04:23;;;;;;;;;;;10.00;99.90;;;;;;5064444;28;19939;-64
2021/04/11 00:06:50;;;;;;;;;;;10.10;99.90;;;;;;5061703;28;19924;-64
2021/04/11 00:09:17;;;;;;;;;;;10.10;99.90;;;;;;5059243;28;19928;-64
2021/04/11 00:11:43;;;;;;;;;;;10.00;99.90;;;;;;5063220;28;19924;-64
2021/04/11 00:14:09;;;;;;;;;;;10.10;99.90;;;;;;5068950;28;19938;-64
2021/04/11 00:16:35;;;;;;;;;;;10.10;99.90;;;;;;5062109;28;19925;-64
2021/04/11 00:19:02;;;;;;;;;;;10.10;99.90;;;;;;5067116;28;19924;-64
2021/04/11 00:21:28;;;;;;;;;;;10.20;99.90;;;;;;5064933;28;20287;-64
2021/04/11 00:23:55;;;;;;;;;;;10.20;99.90;;;;;;5067400;28;19928;-64
2021/04/11 00:26:21;;;;;;;;;;;10.20;99.90;;;;;;5063648;28;20320;-64
2021/04/11 00:28:48;;;;;;;;;;;10.20;99.90;;;;;;5068411;28;19925;-64
2021/04/11 00:31:14;;;;;;;;;;;10.20;99.90;;;;;;5059640;28;19929;-64
2021/04/11 00:33:43;;;;;;;;;;;10.20;99.90;;;;;;5069131;28;19942;-64
2021/04/11 00:36:13;;;;;;;;;;;10.10;99.90;;;;;;5073133;28;19928;-64
2021/04/11 00:38:40;;;;;;;;;;;10.20;99.90;;;;;;5059555;28;19932;-64
2021/04/11 00:41:10;;;;;;;;;;;10.20;99.90;;;;;;5070263;28;19935;-64
2021/04/11 00:43:38;;;;;;;;;;;10.20;99.90;;;;;;5059202;28;19940;-64
2021/04/11 00:46:09;;;;;;;;;;;10.30;99.90;;;;;;5072933;28;19936;-64
2021/04/11 00:48:35;;;;;;;;;;;10.30;99.90;;;;;;5069031;28;19924;-64
2021/04/11 00:51:03;;;;;;;;;;;10.20;99.90;;;;;;5067148;28;20176;-64
2021/04/11 00:53:30;;;;;;;;;;;10.20;99.90;;;;;;5071095;28;19932;-65
2021/04/11 00:55:56;;;;;;;;;;;10.20;99.90;;;;;;5060137;28;19935;-64
2021/04/11 00:58:24;;;;;;;;;;;10.20;99.90;;;;;;5072663;28;19934;-65
2021/04/11 01:00:50;;;;;;;;;;;10.10;99.90;;;;;;5072999;28;19932;-64
2021/04/11 01:03:17;;;;;;;;;;;10.10;99.90;;;;;;5065523;28;19954;-65
2021/04/11 01:05:44;;;;;;;;;;;10.10;99.90;;;;;;5059800;28;19924;-64
2021/04/11 01:08:12;;;;;;;;;;;10.10;99.90;;;;;;5064018;28;19928;-64
2021/04/11 01:10:40;;;;;;;;;;;10.10;99.90;;;;;;5068455;28;20007;-64
2021/04/11 01:13:07;;;;;;;;;;;10.10;99.90;;;;;;5073057;28;19959;-64
2021/04/11 01:15:34;;;;;;;;;;;10.10;99.90;;;;;;5064698;28;19935;-64
2021/04/11 01:18:00;;;;;;;;;;;10.10;99.90;;;;;;5068301;28;20007;-64
2021/04/11 01:20:28;;;;;;;;;;;10.00;99.90;;;;;;5064714;28;20015;-64
2021/04/11 01:23:06;;;;;;;;;;;10.00;99.90;;;;;;5064739;28;20309;-64
2021/04/11 01:25:34;;;;;;;;;;;10.00;99.90;;;;;;5062582;28;19935;-64
2021/04/11 01:28:01;;;;;;;;;;;9.90;99.90;;;;;;5062371;28;19924;-64
2021/04/11 01:30:29;;;;;;;;;;;10.00;99.90;;;;;;5068867;28;19924;-64
2021/04/11 01:32:55;;;;;;;;;;;10.00;99.90;;;;;;5060867;28;19935;-64
2021/04/11 01:35:22;;;;;;;;;;;10.00;99.90;;;;;;5065421;28;19924;-64
2021/04/11 01:37:50;;;;;;;;;;;10.00;99.90;;;;;;5058885;28;19977;-65
2021/04/11 01:40:18;;;;;;;;;;;10.00;99.90;;;;;;5060335;28;19925;-64
2021/04/11 01:42:45;;;;;;;;;;;10.00;99.90;;;;;;5063729;28;19924;-63
2021/04/11 01:45:12;;;;;;;;;;;10.00;99.90;;;;;;5061987;28;19925;-64
2021/04/11 01:47:38;;;;;;;;;;;10.00;99.90;;;;;;5072045;28;19931;-63
2021/04/11 01:50:06;;;;;;;;;;;10.00;99.90;;;;;;5065150;28;20444;-63
2021/04/11 01:52:33;;;;;;;;;;;10.00;99.90;;;;;;5069411;28;20343;-63
2021/04/11 01:54:59;;;;;;;;;;;10.00;99.90;;;;;;5072583;28;20363;-64
2021/04/11 01:57:27;;;;;;;;;;;10.00;99.90;;;;;;5065124;28;20284;-64
2021/04/11 02:00:00;;;;;;;;;;;10.00;99.90;;;;;;5059222;28;20012;-64
2021/04/11 02:02:27;;;;;;;;;;;10.00;99.90;;;;;;5067251;28;19954;-64
2021/04/11 02:04:53;;;;;;;;;;;10.00;99.90;;;;;;5059278;28;19925;-63
2021/04/11 02:07:20;;;;;;;;;;;9.90;99.90;;;;;;5062154;28;19928;-63
2021/04/11 02:09:46;;;;;;;;;;;10.00;99.90;;;;;;5066075;28;19928;-64
2021/04/11 02:12:13;;;;;;;;;;;9.90;99.90;;;;;;5057504;28;19924;-64
2021/04/11 02:14:40;;;;;;;;;;;9.90;99.90;;;;;;5068146;28;19938;-64
2021/04/11 02:17:08;;;;;;;;;;;9.90;99.90;;;;;;5076817;28;19924;-64
2021/04/11 02:19:36;;;;;;;;;;;9.80;99.90;;;;;;5062663;28;19936;-63
2021/04/11 02:22:06;;;;;;;;;;;9.80;99.90;;;;;;5072954;28;19933;-64
2021/04/11 02:24:32;;;;;;;;;;;9.80;99.90;;;;;;5070440;28;20004;-63
2021/04/11 02:26:59;;;;;;;;;;;9.80;99.90;;;;;;5068873;28;20018;-63
2021/04/11 02:29:27;;;;;;;;;;;9.80;99.90;;;;;;5062950;28;19935;-62
2021/04/11 02:31:54;;;;;;;;;;;9.80;99.90;;;;;;5062877;28;19924;-62
2021/04/11 02:34:22;;;;;;;;;;;9.80;99.90;;;;;;5062862;28;19935;-63
2021/04/11 02:36:55;;;;;;;;;;;9.80;99.90;;;;;;5062889;28;19924;-62
2021/04/11 02:39:23;;;;;;;;;;;9.80;99.90;;;;;;5063949;28;19925;-62
2021/04/11 02:41:49;;;;;;;;;;;9.80;99.90;;;;;;5071835;28;19928;-63
2021/04/11 02:44:16;;;;;;;;;;;9.90;99.90;;;;;;5062514;28;19925;-63
2021/04/11 02:46:43;;;;;;;;;;;9.90;99.90;;;;;;5071329;28;19925;-62
2021/04/11 02:49:10;;;;;;;;;;;9.90;99.90;;;;;;5064244;28;19934;-62
2021/04/11 02:51:38;;;;;;;;;;;10.00;99.90;;;;;;5060548;28;19940;-63
2021/04/11 02:54:06;;;;;;;;;;;10.00;99.90;;;;;;5075663;28;19925;-64
2021/04/11 02:56:32;;;;;;;;;;;9.90;99.90;;;;;;5061929;28;19924;-64
2021/04/11 02:58:58;;;;;;;;;;;10.00;99.90;;;;;;5067402;28;19939;-63
2021/04/11 03:01:27;;;;;;;;;;;9.90;99.90;;;;;;5064350;28;19982;-63
2021/04/11 03:03:54;;;;;;;;;;;9.90;99.90;;;;;;5067569;28;20302;-63
2021/04/11 03:06:22;;;;;;;;;;;10.00;99.90;;;;;;5062271;28;19924;-63
2021/04/11 03:08:50;;;;;;;;;;;10.00;99.90;;;;;;5062036;28;20008;-63
2021/04/11 03:11:22;;;;;;;;;;;10.00;99.90;;;;;;5069659;28;19924;-63
2021/04/11 03:13:48;;;;;;;;;;;10.10;99.90;;;;;;5067097;28;19929;-63
2021/04/11 03:16:15;;;;;;;;;;;10.10;99.90;;;;;;5067465;28;20286;-63
2021/04/11 03:18:41;;;;;;;;;;;10.20;99.90;;;;;;5075075;28;19935;-63
2021/04/11 03:21:08;;;;;;;;;;;10.20;99.90;;;;;;5075465;28;19932;-63
2021/04/11 03:23:34;;;;;;;;;;;10.20;99.90;;;;;;5066521;28;20335;-64
2021/04/11 03:26:03;;;;;;;;;;;10.20;99.90;;;;;;5067705;28;19924;-63
2021/04/11 03:28:31;;;;;;;;;;;10.20;99.90;;;;;;5064335;28;19929;-63
2021/04/11 03:31:03;;;;;;;;;;;10.20;99.90;;;;;;5072140;28;19988;-63
2021/04/11 03:33:30;;;;;;;;;;;10.20;99.90;;;;;;5064781;28;19929;-63
2021/04/11 03:35:57;;;;;;;;;;;10.20;99.90;;;;;;5069748;28;19932;-63
2021/04/11 03:38:25;;;;;;;;;;;10.20;99.90;;;;;;5075088;28;19924;-63
2021/04/11 03:40:53;;;;;;;;;;;10.10;99.90;;;;;;5061170;28;19939;-63
2021/04/11 03:43:22;;;;;;;;;;;10.20;99.90;;;;;;5075123;28;19925;-63
2021/04/11 03:45:48;;;;;;;;;;;10.20;99.90;;;;;;5061291;28;20329;-63
2021/04/11 03:48:18;;;;;;;;;;;10.20;99.90;;;;;;5057328;28;20057;-63
2021/04/11 03:50:48;;;;;;;;;;;10.10;99.90;;;;;;5069199;28;20077;-63
2021/04/11 03:53:17;;;;;;;;;;;10.20;99.90;;;;;;5061192;28;19924;-63
2021/04/11 03:55:46;;;;;;;;;;;10.20;99.90;;;;;;5066052;28;19928;-63
2021/04/11 03:58:15;;;;;;;;;;;10.20;99.90;;;;;;5067925;28;19924;-63
2021/04/11 04:00:45;;;;;;;;;;;10.20;99.90;;;;;;5062308;28;19932;-63
2021/04/11 04:03:13;;;;;;;;;;;10.10;99.90;;;;;;5070653;28;19924;-63
2021/04/11 04:05:40;;;;;;;;;;;10.10;99.90;;;;;;5067370;28;19935;-63
2021/04/11 04:08:06;;;;;;;;;;;10.00;99.90;;;;;;5067613;28;19934;-63
2021/04/11 04:10:35;;;;;;;;;;;10.00;99.90;;;;;;5074291;28;19931;-64
2021/04/11 04:13:05;;;;;;;;;;;10.00;99.90;;;;;;5072778;28;19954;-64
2021/04/11 04:15:35;;;;;;;;;;;9.90;99.90;;;;;;5073633;28;19935;-63
2021/04/11 04:18:10;;;;;;;;;;;9.90;99.90;;;;;;5070200;28;19928;-63
2021/04/11 04:20:40;;;;;;;;;;;9.90;99.90;;;;;;5073471;28;19934;-63
2021/04/11 04:23:11;;;;;;;;;;;9.90;99.90;;;;;;5065664;28;19931;-63
2021/04/11 04:25:47;;;;;;;;;;;9.90;99.90;;;;;;5066127;28;19924;-63
2021/04/11 04:28:18;;;;;;;;;;;9.90;99.90;;;;;;5072881;28;19985;-63
2021/04/11 04:30:49;;;;;;;;;;;9.90;99.90;;;;;;5069938;28;19942;-63
2021/04/11 04:33:26;;;;;;;;;;;9.90;99.90;;;;;;5063140;28;19925;-63
2021/04/11 04:35:54;;;;;;;;;;;9.90;99.90;;;;;;5047117;28;19929;-63
2021/04/11 04:38:23;;;;;;;;;;;9.90;99.90;;;;;;5050754;28;19925;-63
2021/04/11 04:41:05;;;;;;;;;;;10.00;99.90;;;;;;5036958;28;20278;-63
2021/04/11 04:43:37;;;;;;;;;;;10.00;99.90;;;;;;5072563;28;19928;-63
2021/04/11 04:46:06;;;;;;;;;;;10.10;99.90;;;;;;5067392;28;20683;-63
2021/04/11 04:48:36;;;;;;;;;;;10.10;99.90;;;;;;5067306;28;20255;-63
2021/04/11 04:51:04;;;;;;;;;;;10.10;99.90;;;;;;5060361;28;20393;-63
2021/04/11 04:53:33;;;;;;;;;;;10.00;99.90;;;;;;5060553;28;20020;-63
2021/04/11 04:56:01;;;;;;;;;;;10.10;99.90;;;;;;5065529;28;19950;-63
2021/04/11 04:58:28;;;;;;;;;;;10.10;99.90;;;;;;5069201;28;20379;-63
2021/04/11 05:00:56;;;;;;;;;;;10.10;99.90;;;;;;5064903;28;19925;-63
2021/04/11 05:03:25;;;;;;;;;;;10.10;99.90;;;;;;5068438;28;19925;-63
2021/04/11 05:05:55;;;;;;;;;;;10.10;99.90;;;;;;5064467;28;19929;-63
2021/04/11 05:08:23;;;;;;;;;;;10.10;99.90;;;;;;5067124;28;19925;-63
2021/04/11 05:10:51;;;;;;;;;;;10.10;99.90;;;;;;5062414;28;19979;-63
2021/04/11 05:13:19;;;;;;;;;;;10.20;99.90;;;;;;5059902;28;19935;-63
2021/04/11 05:15:47;;;;;;;;;;;10.20;99.90;;;;;;5063164;28;19925;-63
2021/04/11 05:18:16;;;;;;;;;;;10.30;99.90;;;;;;5066562;28;20371;-63
2021/04/11 05:20:45;;;;;;;;;;;10.30;99.90;;;;;;5063559;28;19935;-63
2021/04/11 05:23:16;;;;;;;;;;;10.30;99.90;;;;;;5059898;28;19929;-63
2021/04/11 05:25:45;;;;;;;;;;;10.30;99.90;;;;;;5061026;28;19925;-63
2021/04/11 05:28:12;;;;;;;;;;;10.30;99.90;;;;;;5066437;28;19924;-63
2021/04/11 05:30:40;;;;;;;;;;;10.30;99.90;;;;;;5065608;28;19932;-63
2021/04/11 05:33:09;;;;;;;;;;;10.30;99.90;;;;;;5061023;28;20658;-63
2021/04/11 05:35:37;;;;;;;;;;;10.30;99.90;;;;;;5060357;28;19925;-63
2021/04/11 05:38:13;;;;;;;;;;;10.40;99.90;;;;;;5070181;28;19932;-64
2021/04/11 05:40:41;;;;;;;;;;;10.40;99.90;;;;;;5072731;28;20351;-62
2021/04/11 05:43:10;;;;;;;;;;;10.30;99.90;;;;;;5069074;28;20147;-62
2021/04/11 05:45:38;;;;;;;;;;;10.40;99.90;;;;;;5070983;28;19925;-63
2021/04/11 05:48:12;;;;;;;;;;;10.40;99.90;;;;;;5065080;28;19928;-63
2021/04/11 05:50:41;;;;;;;;;;;10.40;99.90;;;;;;5059231;28;19932;-63
2021/04/11 05:53:11;;;;;;;;;;;10.40;99.90;;;;;;5064072;28;19924;-63
2021/04/11 05:55:39;;;;;;;;;;;10.40;99.90;;;;;;5068157;28;19925;-63
2021/04/11 05:58:10;;;;;;;;;;;10.40;99.90;;;;;;5066970;28;19935;-63
2021/04/11 06:00:38;;;;;;;;;;;10.40;99.90;;;;;;5065347;28;19925;-63
2021/04/11 06:03:05;;;;;;;;;;;10.50;99.90;;;;;;5069394;28;20252;-63
2021/04/11 06:05:33;;;;;;;;;;;10.50;99.90;;;;;;5066913;28;19925;-63
2021/04/11 06:08:04;;;;;;;;;;;10.50;99.90;;;;;;5064911;28;19939;-63
2021/04/11 06:10:32;;;;;;;;;;;10.60;99.90;;;;;;5052912;28;19976;-63
2021/04/11 06:13:00;;;;;;;;;;;10.50;99.90;;;;;;5052185;28;19924;-63
2021/04/11 06:15:30;;;;;;;;;;;10.50;99.90;;;;;;5065603;28;19925;-63
2021/04/11 06:17:57;;;;;;;;;;;10.40;99.90;;;;;;5055824;28;19925;-63
2021/04/11 06:20:24;;;;;;;;;;;10.50;99.90;;;;;;5065888;28;19932;-63
2021/04/11 06:22:53;;;;;;;;;;;10.50;99.90;;;;;;5063764;28;19935;-63
2021/04/11 06:25:26;;;;;;;;;;;10.50;99.90;;;;;;5059250;28;19928;-63
2021/04/11 06:27:55;;;;;;;;;;;10.50;99.90;;;;;;5059160;28;19935;-63
2021/04/11 06:30:23;;;;;;;;;;;10.50;99.90;;;;;;5059068;28;19951;-63
2021/04/11 06:32:52;;;;;;;;;;;10.50;99.90;;;;;;5063923;28;20244;-63
2021/04/11 06:35:21;;;;;;;;;;;10.60;99.90;;;;;;5065405;28;19924;-63
2021/04/11 06:37:47;;;;;;;;;;;10.70;99.90;;;;;;5065339;28;19936;-63
2021/04/11 06:40:22;;;;;;;;;;;10.70;99.90;;;;;;5060042;28;20416;-63
2021/04/11 06:42:59;;;;;;;;;;;10.70;99.90;;;;;;5058780;28;19933;-63
2021/04/11 06:45:29;;;;;;;;;;;10.80;99.90;;;;;;5062090;28;19925;-63
2021/04/11 06:48:11;;;;;;;;;;;10.80;99.90;;;;;;5065164;28;19929;-63
2021/04/11 06:50:55;;;;;;;;;;;10.80;99.90;;;;;;5065204;28;19924;-63
2021/04/11 06:53:36;;;;;;;;;;;10.80;99.90;;;;;;5061131;28;20641;-63
2021/04/11 06:56:23;;;;;;;;;;;10.80;99.90;;;;;;5058312;28;19924;-63
2021/04/11 06:58:50;;;;;;;;;;;10.90;99.90;;;;;;5065678;28;19929;-63
2021/04/11 07:01:28;;;;;;;;;;;10.90;99.90;;;;;;5060604;28;19924;-63
2021/04/11 07:04:19;;;;;;;;;;;11.00;99.90;;;;;;5075874;28;19942;-63
2021/04/11 07:06:52;;;;;;;;;;;11.00;99.90;;;;;;5062841;28;20031;-63
2021/04/11 07:09:37;;;;;;;;;;;11.00;99.90;;;;;;5063060;28;19985;-63
2021/04/11 07:12:18;;;;;;;;;;;11.10;99.90;;;;;;5061943;28;19935;-63
2021/04/11 07:15:05;;;;;;;;;;;11.20;99.90;;;;;;5063191;28;19924;-63
2021/04/11 07:17:56;;;;;;;;;;;11.10;99.90;;;;;;5051384;28;19982;-63
2021/04/11 07:20:31;;;;;;;;;;;11.20;99.90;;;;;;5073073;28;19924;-63
2021/04/11 07:23:09;;;;;;;;;;;11.20;99.90;;;;;;5063463;28;20211;-63
2021/04/11 07:25:43;;;;;;;;;;;11.20;99.90;;;;;;5061960;28;19978;-63
2021/04/11 07:28:21;;;;;;;;;;;11.30;99.90;;;;;;5061918;28;19928;-63
2021/04/11 07:30:48;;;;;;;;;;;11.50;99.90;;;;;;5065730;28;19931;-64
2021/04/11 07:33:30;;;;;;;;;;;11.50;99.90;;;;;;5058222;28;19932;-63
2021/04/11 07:36:09;;;;;;;;;;;11.60;99.90;;;;;;5043524;28;20364;-62
2021/04/11 07:38:43;;;;;;;;;;;11.80;99.90;;;;;;5041534;28;19935;-62
2021/04/11 07:41:26;;;;;;;;;;;11.90;99.90;;;;;;5041701;28;19951;-62
2021/04/11 07:44:08;;;;;;;;;;;12.00;99.90;;;;;;5044884;28;19943;-63
2021/04/11 07:46:44;;;;;;;;;;;12.20;99.90;;;;;;5048068;28;19925;-63
2021/04/11 07:49:23;;;;;;;;;;;12.30;99.90;;;;;;5048448;28;19935;-62
2021/04/11 07:52:06;;;;;;;;;;;12.40;99.90;;;;;;5043236;28;19936;-62
2021/04/11 07:54:40;;;;;;;;;;;12.50;99.90;;;;;;5041317;28;19925;-62
2021/04/11 07:57:13;;;;;;;;;;;12.60;99.90;;;;;;5074583;28;19925;-63
2021/04/11 07:59:52;;;;;;;;;;;12.60;99.90;;;;;;5068497;28;19939;-63
2021/04/11 08:02:23;;;;;;;;;;;12.70;99.90;;;;;;5069767;28;19924;-63
2021/04/11 08:05:00;;;;;;;;;;;12.70;99.90;;;;;;5074515;28;20146;-63
2021/04/11 08:07:43;;;;;;;;;;;12.90;99.90;;;;;;5060426;28;19924;-63
2021/04/11 08:10:17;;;;;;;;;;;12.90;99.90;;;;;;5061299;28;20258;-63
2021/04/11 08:12:58;;;;;;;;;;;13.00;99.90;;;;;;5065410;28;19958;-62
2021/04/11 08:15:29;;;;;;;;;;;13.00;99.90;;;;;;5067915;28;20012;-62
2021/04/11 08:18:01;;;;;;;;;;;13.00;99.90;;;;;;5065558;28;20695;-62
2021/04/11 08:20:42;;;;;;;;;;;13.10;99.90;;;;;;5071946;28;20011;-63
2021/04/11 08:23:27;;;;;;;;;;;13.20;99.90;;;;;;5063163;28;20266;-62
2021/04/11 08:25:57;;;;;;;;;;;13.20;99.90;;;;;;5061270;28;19935;-63
2021/04/11 08:28:30;;;;;;;;;;;13.30;99.90;;;;;;5060717;28;20266;-63
2021/04/11 08:31:07;;;;;;;;;;;13.40;99.90;;;;;;5065588;28;19935;-63
2021/04/11 08:33:56;;;;;;;;;;;13.50;99.90;;;;;;5070473;28;19925;-63
2021/04/11 08:36:48;;;;;;;;;;;13.60;99.90;;;;;;5060915;28;19993;-62
2021/04/11 08:39:33;;;;;;;;;;;13.70;99.90;;;;;;5063325;28;19943;-63
2021/04/11 08:42:16;;;;;;;;;;;13.80;99.80;;;;;;5059909;28;19939;-63
2021/04/11 08:44:54;;;;;;;;;;;13.90;99.30;;;;;;5060630;28;19929;-63
2021/04/11 08:47:26;;;;;;;;;;;13.90;98.60;;;;;;5073089;28;19990;-63
2021/04/11 08:49:55;;;;;;;;;;;14.10;98.50;;;;;;5060326;28;19935;-63
2021/04/11 08:52:27;;;;;;;;;;;14.20;98.40;;;;;;5066506;28;19934;-62
2021/04/11 08:54:57;;;;;;;;;;;14.20;98.20;;;;;;5073438;28;19929;-62
2021/04/11 08:57:38;;;;;;;;;;;14.30;98.00;;;;;;5073053;28;19925;-62
2021/04/11 09:00:09;;;;;;;;;;;14.40;97.30;;;;;;5061364;28;20370;-63
2021/04/11 09:02:46;;;;;;;;;;;14.40;97.00;;;;;;5063477;28;19931;-63
2021/04/11 09:05:18;;;;;;;;;;;14.50;96.80;;;;;;5072713;28;20361;-62
2021/04/11 09:07:54;;;;;;;;;;;14.50;96.60;;;;;;5061337;28;19934;-63
2021/04/11 09:10:26;;;;;;;;;;;14.40;96.00;;;;;;5059407;28;20309;-63
2021/04/11 09:12:58;;;;;;;;;;;14.50;96.30;;;;;;5073275;28;19924;-63
2021/04/11 09:15:26;;;;;;;;;;;14.60;96.40;;;;;;5066908;28;20019;-63
2021/04/11 09:18:22;;;;;;;;;;;14.70;96.30;;;;;;5062260;28;19924;-63
2021/04/11 09:20:57;;;;;;;;;;;14.80;96.30;;;;;;5020303;28;20008;-62
2021/04/11 09:23:33;;;;;;;;;;;14.90;96.10;;;;;;5039428;28;19935;-63
2021/04/11 09:26:06;;;;;;;;;;;15.00;96.00;;;;;;5044765;28;19982;-63
2021/04/11 09:28:36;;;;;;;;;;;15.00;95.50;;;;;;5046341;28;19924;-63
2021/04/11 09:31:12;;;;;;;;;;;15.10;95.20;;;;;;5042068;28;19925;-63
2021/04/11 09:33:53;;;;;;;;;;;15.10;94.80;;;;;;5047394;28;20355;-63
2021/04/11 09:36:24;;;;;;;;;;;15.20;94.90;;;;;;5037341;28;19978;-63
2021/04/11 09:39:00;;;;;;;;;;;15.30;95.10;;;;;;5060137;28;19928;-63
2021/04/11 09:41:32;;;;;;;;;;;15.40;94.80;;;;;;5070932;28;19924;-64
2021/04/11 09:44:21;;;;;;;;;;;15.60;94.90;;;;;;5061356;28;20288;-61
2021/04/11 09:46:53;;;;;;;;;;;15.70;94.80;;;;;;5054052;28;19931;-62
2021/04/11 09:49:37;;;;;;;;;;;15.70;94.80;;;;;;5059648;28;20019;-63
2021/04/11 09:52:25;;;;;;;;;;;15.80;94.40;;;;;;5062130;28;20269;-62
2021/04/11 09:54:57;;;;;;;;;;;15.80;94.30;;;;;;5066202;28;19935;-63
2021/04/11 09:57:29;;;;;;;;;;;15.80;94.10;;;;;;5068878;28;19931;-63
2021/04/11 10:00:10;;;;;;;;;;;15.80;93.90;;;;;;5069488;28;20347;-62
2021/04/11 10:02:44;;;;;;;;;;;15.80;93.70;;;;;;5072472;28;19924;-63
2021/04/11 10:05:15;;;;;;;;;;;15.90;93.80;;;;;;5072228;28;20015;-63
2021/04/11 10:07:45;;;;;;;;;;;15.90;93.80;;;;;;5059941;28;19925;-63
2021/04/11 10:10:13;;;;;;;;;;;15.90;93.80;;;;;;5058627;28;19998;-62
2021/04/11 10:12:57;;;;;;;;;;;16.00;93.90;;;;;;5064849;28;19935;-62
2021/04/11 10:15:28;;;;;;;;;;;16.00;93.80;;;;;;5069004;28;19924;-62
2021/04/11 10:18:14;;;;;;;;;;;16.10;93.70;;;;;;5069138;28;19924;-64
2021/04/11 10:20:46;;;;;;;;;;;16.10;93.70;;;;;;5072052;28;20354;-63
2021/04/11 10:23:17;;;;;;;;;;;16.20;93.80;;;;;;5060607;28;20400;-63
2021/04/11 10:25:47;;;;;;;;;;;16.30;93.70;;;;;;5065366;28;19935;-62
2021/04/11 10:28:16;;;;;;;;;;;16.30;93.70;;;;;;5065446;28;19924;-62
2021/04/11 10:30:44;;;;;;;;;;;16.30;93.60;;;;;;5059007;28;19924;-63
2021/04/11 10:33:15;;;;;;;;;;;16.40;93.60;;;;;;5066740;28;20312;-62
2021/04/11 10:35:44;;;;;;;;;;;16.50;93.50;;;;;;5066268;28;20155;-62
2021/04/11 10:38:13;;;;;;;;;;;16.60;93.40;;;;;;5069526;28;20367;-63
2021/04/11 10:40:47;;;;;;;;;;;16.70;93.40;;;;;;5064216;28;19928;-62
2021/04/11 10:43:20;;;;;;;;;;;16.70;92.90;;;;;;5062536;28;19932;-63
2021/04/11 10:45:48;;;;;;;;;;;16.80;92.90;;;;;;5065328;28;19925;-63
2021/04/11 10:48:34;;;;;;;;;;;16.90;92.90;;;;;;5069553;28;19924;-63
2021/04/11 10:51:09;;;;;;;;;;;17.00;92.70;;;;;;5069432;28;19924;-63
2021/04/11 10:53:44;;;;;;;;;;;17.10;92.50;;;;;;5063106;28;19924;-64
2021/04/11 10:56:21;;;;;;;;;;;17.20;92.30;;;;;;5073742;28;19936;-63
2021/04/11 10:59:00;;;;;;;;;;;17.30;92.20;;;;;;5066121;28;20268;-63
2021/04/11 11:01:37;;;;;;;;;;;17.40;91.80;;;;;;5062363;28;20274;-62
2021/04/11 11:04:18;;;;;;;;;;;17.40;91.80;;;;;;5075576;28;20355;-61
2021/04/11 11:07:03;;;;;;;;;;;17.50;91.60;;;;;;5062446;28;19925;-62
2021/04/11 11:09:32;;;;;;;;;;;17.60;91.40;;;;;;5064099;28;19928;-63
2021/04/11 11:12:19;;;;;;;;;;;17.70;91.00;;;;;;5061879;28;19943;-61
2021/04/11 11:15:04;;;;;;;;;;;17.70;91.20;;;;;;5037910;28;20012;-62
2021/04/11 11:17:41;;;;;;;;;;;17.80;91.30;;;;;;5061375;28;19950;-63
2021/04/11 11:20:15;;;;;;;;;;;17.90;91.20;;;;;;5067876;28;19931;-63
2021/04/11 11:22:51;;;;;;;;;;;18.00;91.20;;;;;;5043128;28;19974;-63
2021/04/11 11:25:26;;;;;;;;;;;18.00;91.00;;;;;;5052553;28;19931;-63
2021/04/11 11:28:05;;;;;;;;;;;18.10;90.80;;;;;;5041619;28;19937;-63
2021/04/11 11:30:37;;;;;;;;;;;18.20;90.40;;;;;;5041835;28;19925;-62
2021/04/11 11:33:14;;;;;;;;;;;18.30;90.20;;;;;;5052535;28;19931;-63
2021/04/11 11:35:51;;;;;;;;;;;18.40;89.90;;;;;;5051056;28;19925;-62
2021/04/11 11:38:20;;;;;;;;;;;18.50;88.80;;;;;;5046966;28;19924;-63
2021/04/11 11:40:54;;;;;;;;;;;18.60;88.80;;;;;;5045316;28;20308;-62
2021/04/11 11:43:24;;;;;;;;;;;18.60;87.20;;;;;;5074456;28;19955;-63
2021/04/11 11:46:03;;;;;;;;;;;18.70;88.00;;;;;;5066943;28;19929;-63
2021/04/11 11:48:39;;;;;;;;;;;18.80;87.30;;;;;;5067416;28;20622;-63
2021/04/11 11:51:09;;;;;;;;;;;18.90;88.00;;;;;;5065835;28;19935;-61
2021/04/11 11:53:39;;;;;;;;;;;18.90;88.00;;;;;;5070931;28;20388;-62
2021/04/11 11:56:13;;;;;;;;;;;19.00;88.00;;;;;;5074597;28;19925;-62
2021/04/11 11:58:42;;;;;;;;;;;19.00;88.00;;;;;;5073959;28;20364;-63
2021/04/11 12:01:11;;;;;;;;;;;19.00;88.20;;;;;;5074414;28;20258;-63
2021/04/11 12:03:38;;;;;;;;;;;19.10;88.10;;;;;;5068500;28;19924;-63
2021/04/11 12:06:06;;;;;;;;;;;19.00;87.30;;;;;;5067751;28;19925;-62
2021/04/11 12:08:37;;;;;;;;;;;19.10;86.70;;;;;;5067492;28;19975;-63
2021/04/11 12:11:08;;;;;;;;;;;19.10;85.70;;;;;;5062705;28;19928;-63
2021/04/11 12:13:38;;;;;;;;;;;19.10;85.50;;;;;;5072351;28;19931;-61
2021/04/11 12:16:07;;;;;;;;;;;19.20;85.40;;;;;;5064100;28;20270;-63
2021/04/11 12:18:36;;;;;;;;;;;19.20;84.50;;;;;;5057392;28;19929;-63
2021/04/11 12:21:04;;;;;;;;;;;19.20;84.00;;;;;;5067929;28;19935;-63
2021/04/11 12:23:35;;;;;;;;;;;19.30;83.70;;;;;;5064966;28;19924;-62
2021/04/11 12:26:07;;;;;;;;;;;19.40;83.00;;;;;;5064738;28;19924;-62
2021/04/11 12:28:34;;;;;;;;;;;19.40;82.20;;;;;;5061335;28;19989;-63
2021/04/11 12:31:09;;;;;;;;;;;19.40;79.20;;;;;;5067741;28;20385;-62
2021/04/11 12:33:41;;;;;;;;;;;19.40;79.20;;;;;;5058597;28;19924;-62
2021/04/11 12:36:09;;;;;;;;;;;19.40;78.40;;;;;;5066322;28;20274;-62
2021/04/11 12:38:38;;;;;;;;;;;19.60;78.60;;;;;;5068490;28;19925;-62
2021/04/11 12:41:06;;;;;;;;;;;19.60;79.00;;;;;;5065457;28;20263;-62
2021/04/11 12:43:37;;;;;;;;;;;19.60;77.50;;;;;;5067045;28;20023;-62
2021/04/11 12:46:08;;;;;;;;;;;19.60;75.60;;;;;;5063316;28;20005;-62
2021/04/11 12:48:47;;;;;;;;;;;19.70;76.40;;;;;;5059995;28;19925;-62
2021/04/11 12:51:16;;;;;;;;;;;19.70;75.40;;;;;;5061917;28;20397;-63
2021/04/11 12:53:48;;;;;;;;;;;19.80;76.10;;;;;;5072280;28;19973;-62
2021/04/11 12:56:16;;;;;;;;;;;19.80;75.40;;;;;;5073261;28;19925;-63
2021/04/11 12:58:46;;;;;;;;;;;19.90;75.30;;;;;;5072544;28;19988;-63
2021/04/11 13:01:16;;;;;;;;;;;19.90;74.60;;;;;;5072026;28;20378;-63
2021/04/11 13:03:45;;;;;;;;;;;19.90;75.00;;;;;;5073434;28;19929;-63
2021/04/11 13:06:15;;;;;;;;;;;20.00;74.10;;;;;;5065316;28;19925;-63
2021/04/11 13:08:45;;;;;;;;;;;20.00;72.30;;;;;;5068449;28;19930;-63
2021/04/11 13:11:15;;;;;;;;;;;20.00;72.70;;;;;;5064001;28;20004;-63
2021/04/11 13:13:43;;;;;;;;;;;20.10;73.60;;;;;;5069634;28;19935;-62
2021/04/11 13:16:15;;;;;;;;;;;20.10;74.20;;;;;;5063024;28;20082;-63
2021/04/11 13:18:45;;;;;;;;;;;20.20;74.20;;;;;;5059495;28;20062;-63
2021/04/11 13:21:15;;;;;;;;;;;20.30;74.50;;;;;;5071903;28;20183;-63
2021/04/11 13:23:46;;;;;;;;;;;20.30;73.70;;;;;;5060105;28;19924;-63
2021/04/11 13:26:15;;;;;;;;;;;20.30;73.40;;;;;;5059877;28;20355;-63
2021/04/11 13:28:45;;;;;;;;;;;20.30;72.20;;;;;;5059249;28;20008;-63
2021/04/11 13:31:15;;;;;;;;;;;20.40;72.20;;;;;;5065487;28;19933;-62
2021/04/11 13:33:49;;;;;;;;;;;20.40;72.60;;;;;;5066082;28;19924;-62
2021/04/11 13:36:30;;;;;;;;;;;20.40;72.30;;;;;;5062628;28;19924;-63
2021/04/11 13:38:59;;;;;;;;;;;20.50;71.40;;;;;;5063055;28;19932;-63
2021/04/11 13:41:27;;;;;;;;;;;20.40;72.10;;;;;;5060841;28;20007;-63
2021/04/11 13:43:57;;;;;;;;;;;20.40;72.10;;;;;;5066485;28;19925;-63
2021/04/11 13:46:32;;;;;;;;;;;20.40;71.30;;;;;;5064931;28;19931;-62
2021/04/11 13:49:00;;;;;;;;;;;20.40;71.70;;;;;;5063960;28;19928;-63
2021/04/11 13:51:50;;;;;;;;;;;20.40;71.50;;;;;;5071837;28;20541;-62
2021/04/11 13:54:25;;;;;;;;;;;20.50;72.20;;;;;;5062589;28;19993;-62
2021/04/11 13:56:57;;;;;;;;;;;20.40;71.30;;;;;;5072421;28;20359;-63
2021/04/11 13:59:27;;;;;;;;;;;20.40;72.10;;;;;;5072200;28;19935;-62
2021/04/11 14:01:57;;;;;;;;;;;20.40;72.10;;;;;;5059708;28;19929;-62
2021/04/11 14:04:28;;;;;;;;;;;20.40;72.00;;;;;;5059198;28;19979;-62
2021/04/11 14:06:57;;;;;;;;;;;20.40;71.90;;;;;;5059249;28;19929;-61
2021/04/11 14:09:27;;;;;;;;;;;20.30;71.90;;;;;;5064014;28;19943;-62
2021/04/11 14:12:01;;;;;;;;;;;20.30;71.70;;;;;;5070249;28;19924;-62
2021/04/11 14:14:30;;;;;;;;;;;20.40;71.80;;;;;;5066419;28;19925;-61
2021/04/11 14:16:59;;;;;;;;;;;20.40;71.70;;;;;;5063112;28;19924;-62
2021/04/11 14:19:27;;;;;;;;;;;20.40;71.30;;;;;;5065539;28;19924;-62
2021/04/11 14:22:01;;;;;;;;;;;20.50;71.80;;;;;;5072434;28;20090;-63
2021/04/11 14:24:29;;;;;;;;;;;20.50;71.10;;;;;;5066336;28;20275;-62
2021/04/11 14:27:03;;;;;;;;;;;20.50;70.60;;;;;;5069819;28;19935;-62
2021/04/11 14:29:32;;;;;;;;;;;20.60;70.30;;;;;;5067915;28;19936;-63
2021/04/11 14:32:03;;;;;;;;;;;20.60;69.90;;;;;;5063051;28;19938;-64
2021/04/11 14:34:33;;;;;;;;;;;20.60;70.80;;;;;;5063064;28;19925;-63
2021/04/11 14:37:04;;;;;;;;;;;20.60;70.80;;;;;;5063479;28;19971;-62
2021/04/11 14:39:31;;;;;;;;;;;20.60;70.70;;;;;;5062507;28;20695;-62
2021/04/11 14:42:00;;;;;;;;;;;20.60;70.60;;;;;;5068183;28;20054;-61
2021/04/11 14:44:32;;;;;;;;;;;20.50;70.80;;;;;;5069284;28;20233;-61